Time;durP1;ratioP1;P1;durP2;ratioP2;P2;SDS_P1;SDS_P2;PMS_P1;PMS_P2;Temp;Humidity;BMP_temperature;BMP_pressure;BME280_temperature;BME280_humidity;BME280_pressure;Samples;Min_cycle;Max_cycle;Signal;HPM_P1;HPM_P2
2021/04/05 00:00:18;;;;;;;5.77;4.40;;;5.30;75.30;;;;;;5094187;28;20468;-81
2021/04/05 00:02:45;;;;;;;6.10;4.43;;;5.30;75.20;;;;;;5093912;28;20432;-81
2021/04/05 00:05:14;;;;;;;7.37;4.90;;;5.30;75.50;;;;;;5094148;28;20455;-81
2021/04/05 00:07:42;;;;;;;5.90;4.20;;;5.30;75.70;;;;;;5093917;28;20807;-81
2021/04/05 00:10:10;;;;;;;7.07;4.80;;;5.30;75.80;;;;;;5093995;28;20472;-81
2021/04/05 00:12:36;;;;;;;7.50;4.70;;;5.20;75.90;;;;;;5093832;28;20444;-81
2021/04/05 00:15:05;;;;;;;6.83;4.00;;;5.30;76.30;;;;;;5093704;28;20990;-81
2021/04/05 00:17:32;;;;;;;6.90;4.03;;;5.20;76.10;;;;;;5093930;28;20448;-80
2021/04/05 00:19:58;;;;;;;6.13;4.10;;;5.20;76.40;;;;;;5093682;28;20452;-81
2021/04/05 00:22:24;;;;;;;5.23;4.73;;;5.10;76.30;;;;;;5093918;28;20592;-81
2021/04/05 00:24:52;;;;;;;7.30;4.60;;;5.10;76.60;;;;;;5093539;28;20455;-80
2021/04/05 00:27:18;;;;;;;5.50;4.50;;;5.00;77.40;;;;;;5093634;28;20432;-81
2021/04/05 00:29:44;;;;;;;6.00;4.70;;;5.00;77.90;;;;;;5093903;28;20464;-80
2021/04/05 00:32:10;;;;;;;6.60;4.83;;;4.90;78.10;;;;;;5093771;28;20448;-81
2021/04/05 00:34:37;;;;;;;6.30;4.60;;;4.90;78.70;;;;;;5093680;28;20440;-80
2021/04/05 00:37:04;;;;;;;7.40;4.57;;;4.80;78.70;;;;;;5093805;28;20444;-81
2021/04/05 00:39:31;;;;;;;6.50;4.90;;;4.70;79.00;;;;;;5093702;28;20478;-81
2021/04/05 00:41:58;;;;;;;6.37;5.10;;;4.70;79.40;;;;;;5093650;28;20451;-81
2021/04/05 00:44:25;;;;;;;7.40;5.03;;;4.70;79.70;;;;;;5093605;28;20505;-80
2021/04/05 00:46:52;;;;;;;6.93;4.70;;;4.70;80.10;;;;;;5093546;28;20461;-80
2021/04/05 00:49:18;;;;;;;6.90;4.90;;;4.70;80.20;;;;;;5093624;28;20486;-81
2021/04/05 00:51:44;;;;;;;6.80;5.37;;;4.70;81.50;;;;;;5093569;28;20444;-81
2021/04/05 00:54:12;;;;;;;6.10;5.17;;;4.60;81.00;;;;;;5093267;28;20525;-80
2021/04/05 00:56:39;;;;;;;6.27;4.83;;;4.70;81.70;;;;;;5093626;28;20566;-81
2021/04/05 00:59:06;;;;;;;9.70;4.87;;;4.70;81.70;;;;;;5093443;28;20501;-81
2021/04/05 01:01:33;;;;;;;9.33;5.20;;;4.60;82.00;;;;;;5093807;28;20811;-81
2021/04/05 01:03:59;;;;;;;8.23;5.47;;;4.70;81.90;;;;;;5093635;28;20454;-81
2021/04/05 01:06:27;;;;;;;10.33;5.60;;;4.70;82.40;;;;;;5093458;28;20444;-81
2021/04/05 01:08:54;;;;;;;8.67;5.50;;;4.70;82.80;;;;;;5093444;28;20472;-81
2021/04/05 01:11:23;;;;;;;9.50;5.27;;;4.60;82.90;;;;;;5093532;28;20447;-81
2021/04/05 01:13:52;;;;;;;6.67;5.97;;;4.60;83.20;;;;;;5093136;28;20845;-81
2021/04/05 01:16:20;;;;;;;6.93;5.50;;;4.60;83.30;;;;;;5093520;28;20480;-81
2021/04/05 01:18:47;;;;;;;8.97;5.50;;;4.60;83.40;;;;;;5093457;28;20528;-80
2021/04/05 01:21:13;;;;;;;8.00;4.77;;;4.60;83.60;;;;;;5093519;28;20448;-80
2021/04/05 01:23:40;;;;;;;10.67;5.10;;;4.60;83.60;;;;;;5093436;28;20452;-80
2021/04/05 01:26:07;;;;;;;5.60;5.00;;;4.60;83.90;;;;;;5093218;28;20501;-80
2021/04/05 01:28:33;;;;;;;9.77;5.30;;;4.60;83.80;;;;;;5097310;28;20513;-81
2021/04/05 01:31:02;;;;;;;8.00;5.10;;;4.60;83.90;;;;;;5093439;28;20432;-80
2021/04/05 01:33:30;;;;;;;8.07;4.63;;;4.60;84.30;;;;;;5093203;28;20500;-81
2021/04/05 01:35:58;;;;;;;6.47;4.23;;;4.60;84.00;;;;;;5093338;28;20519;-81
2021/04/05 01:38:26;;;;;;;5.20;3.93;;;4.60;84.70;;;;;;5096700;28;20955;-80
2021/04/05 01:40:55;;;;;;;10.80;4.23;;;4.60;85.50;;;;;;5096807;28;20434;-80
2021/04/05 01:43:23;;;;;;;7.23;4.10;;;4.60;84.90;;;;;;5097356;28;20447;-80
2021/04/05 01:45:52;;;;;;;6.57;4.57;;;4.70;85.20;;;;;;5097103;28;20450;-81
2021/04/05 01:48:22;;;;;;;6.20;4.10;;;4.70;85.10;;;;;;5096416;28;20515;-81
2021/04/05 01:50:49;;;;;;;5.63;3.87;;;4.70;84.80;;;;;;5096804;28;20463;-81
2021/04/05 01:53:18;;;;;;;7.17;4.40;;;4.70;84.90;;;;;;5096791;28;20528;-81
2021/04/05 01:55:45;;;;;;;5.10;4.17;;;4.70;84.80;;;;;;5096662;28;20541;-81
2021/04/05 01:58:17;;;;;;;6.20;4.10;;;4.70;84.80;;;;;;5096417;28;20443;-81
2021/04/05 02:00:43;;;;;;;5.37;4.50;;;4.70;84.80;;;;;;5096245;28;20823;-81
2021/04/05 02:03:11;;;;;;;7.50;4.00;;;4.70;85.10;;;;;;5096558;28;20501;-81
2021/04/05 02:05:42;;;;;;;5.83;4.20;;;4.60;85.40;;;;;;5096402;28;20443;-80
2021/04/05 02:08:09;;;;;;;4.97;4.33;;;4.60;85.80;;;;;;5096403;28;20436;-81
2021/04/05 02:10:36;;;;;;;9.60;4.57;;;4.60;86.10;;;;;;5096328;28;20501;-80
2021/04/05 02:13:05;;;;;;;5.43;4.40;;;4.50;85.90;;;;;;5096116;28;20440;-81
2021/04/05 02:15:34;;;;;;;4.40;3.83;;;4.50;86.70;;;;;;5096209;28;20506;-81
2021/04/05 02:18:01;;;;;;;11.30;4.97;;;4.50;87.00;;;;;;5096208;28;20451;-81
2021/04/05 02:20:29;;;;;;;6.53;4.37;;;4.50;87.50;;;;;;5096121;28;20479;-80
2021/04/05 02:22:58;;;;;;;6.93;5.10;;;4.40;87.70;;;;;;5095844;28;20440;-81
2021/04/05 02:25:29;;;;;;;6.13;4.37;;;4.40;88.90;;;;;;5095801;28;20436;-81
2021/04/05 02:27:56;;;;;;;10.37;4.53;;;4.40;90.00;;;;;;5095917;28;20417;-81
2021/04/05 02:30:26;;;;;;;4.33;3.93;;;4.30;90.00;;;;;;5095907;28;20463;-80
2021/04/05 02:32:58;;;;;;;8.70;4.60;;;4.40;90.30;;;;;;5095707;28;20807;-81
2021/04/05 02:35:26;;;;;;;9.37;5.50;;;4.30;90.60;;;;;;5095912;28;20490;-81
2021/04/05 02:37:54;;;;;;;4.80;4.30;;;4.30;91.00;;;;;;5095864;28;20447;-81
2021/04/05 02:40:21;;;;;;;8.20;4.80;;;4.20;91.30;;;;;;5095759;28;20472;-81
2021/04/05 02:42:48;;;;;;;7.90;4.10;;;4.20;91.70;;;;;;5095501;28;20447;-81
2021/04/05 02:45:17;;;;;;;5.50;4.50;;;4.20;92.00;;;;;;5095435;28;20963;-81
2021/04/05 02:47:44;;;;;;;9.90;5.10;;;4.10;92.20;;;;;;5095086;28;20479;-80
2021/04/05 02:50:12;;;;;;;7.33;4.80;;;4.10;93.00;;;;;;5096246;28;20472;-81
2021/04/05 02:52:39;;;;;;;8.17;4.60;;;4.10;93.20;;;;;;5095239;28;20473;-81
2021/04/05 02:55:10;;;;;;;6.60;4.20;;;4.10;93.40;;;;;;5095487;28;20480;-81
2021/04/05 02:57:37;;;;;;;6.50;4.23;;;4.10;93.80;;;;;;5095417;28;20413;-81
2021/04/05 03:00:08;;;;;;;5.57;4.13;;;4.00;94.20;;;;;;5095117;28;20468;-81
2021/04/05 03:02:34;;;;;;;6.73;4.60;;;4.00;94.90;;;;;;5095813;28;20444;-81
2021/04/05 03:05:03;;;;;;;4.87;4.37;;;3.90;95.20;;;;;;5095932;28;20456;-80
2021/04/05 03:07:30;;;;;;;5.10;4.60;;;3.90;95.70;;;;;;5095298;28;20451;-81
2021/04/05 03:09:56;;;;;;;7.30;4.90;;;3.80;96.30;;;;;;5094961;28;20998;-81
2021/04/05 03:12:23;;;;;;;5.23;3.90;;;3.80;96.80;;;;;;5095005;28;20454;-81
2021/04/05 03:14:50;;;;;;;9.47;5.20;;;3.80;97.10;;;;;;5094873;28;20841;-81
2021/04/05 03:17:18;;;;;;;7.77;4.60;;;3.70;97.50;;;;;;5095776;28;20504;-81
2021/04/05 03:19:45;;;;;;;9.20;5.03;;;3.70;98.10;;;;;;5094974;28;20503;-81
2021/04/05 03:22:12;;;;;;;9.90;4.90;;;3.60;98.40;;;;;;5094761;28;20432;-81
2021/04/05 03:24:40;;;;;;;8.67;4.57;;;3.60;98.40;;;;;;5094991;28;20444;-81
2021/04/05 03:27:07;;;;;;;6.47;5.20;;;3.60;98.60;;;;;;5094751;28;20935;-81
2021/04/05 03:29:36;;;;;;;6.60;4.33;;;3.50;99.20;;;;;;5094870;28;20510;-81
2021/04/05 03:32:04;;;;;;;6.00;4.90;;;3.40;99.70;;;;;;5094520;28;20943;-80
2021/04/05 03:34:32;;;;;;;7.00;4.73;;;3.40;99.90;;;;;;5094553;28;20434;-81
2021/04/05 03:37:03;;;;;;;8.03;4.50;;;3.40;99.90;;;;;;5094362;28;20483;-81
2021/04/05 03:39:29;;;;;;;8.30;4.80;;;3.40;99.90;;;;;;5094641;28;20529;-81
2021/04/05 03:42:02;;;;;;;7.47;4.50;;;3.40;99.90;;;;;;5094353;28;20451;-81
2021/04/05 03:44:37;;;;;;;9.30;5.03;;;3.50;99.90;;;;;;5094633;28;20522;-81
2021/04/05 03:47:13;;;;;;;10.67;5.17;;;3.60;99.90;;;;;;5094452;28;20812;-80
2021/04/05 03:49:45;;;;;;;10.23;4.47;;;3.60;99.90;;;;;;5094432;28;20490;-80
2021/04/05 03:52:19;;;;;;;8.17;4.60;;;3.70;99.90;;;;;;5094502;28;20489;-81
2021/04/05 03:54:49;;;;;;;4.70;4.30;;;3.70;99.90;;;;;;5094444;28;20486;-81
2021/04/05 03:57:21;;;;;;;6.43;4.17;;;3.90;99.80;;;;;;5094117;28;20900;-80
2021/04/05 03:59:50;;;;;;;6.97;5.13;;;3.90;99.80;;;;;;5093722;28;20513;-80
2021/04/05 04:02:20;;;;;;;7.00;4.70;;;3.80;99.80;;;;;;5094000;28;20428;-80
2021/04/05 04:04:55;;;;;;;6.17;4.33;;;3.80;99.90;;;;;;5094201;28;20521;-81
2021/04/05 04:07:29;;;;;;;6.03;4.30;;;3.80;99.90;;;;;;5093868;28;20915;-81
2021/04/05 04:09:57;;;;;;;5.73;4.37;;;3.80;99.90;;;;;;5094196;28;20476;-81
2021/04/05 04:12:25;;;;;;;6.97;5.03;;;3.80;99.90;;;;;;5094200;28;20457;-81
2021/04/05 04:14:54;;;;;;;7.33;4.10;;;3.90;99.90;;;;;;5093943;28;20448;-81
2021/04/05 04:17:21;;;;;;;4.53;4.10;;;3.80;99.90;;;;;;5093995;28;20452;-81
2021/04/05 04:19:48;;;;;;;4.77;4.30;;;3.90;99.90;;;;;;5093595;28;20588;-81
2021/04/05 04:22:16;;;;;;;6.90;4.03;;;3.80;99.90;;;;;;5093588;28;20970;-81
2021/04/05 04:24:42;;;;;;;9.77;4.27;;;3.90;99.90;;;;;;5093565;28;21007;-80
2021/04/05 04:27:13;;;;;;;7.07;4.33;;;3.90;99.80;;;;;;5093809;28;20447;-81
2021/04/05 04:29:40;;;;;;;4.70;3.67;;;3.90;99.80;;;;;;5093780;28;20970;-80
2021/04/05 04:32:07;;;;;;;6.73;3.77;;;3.90;99.50;;;;;;5093783;28;20440;-81
2021/04/05 04:34:35;;;;;;;8.40;3.60;;;3.90;99.30;;;;;;5093703;28;20448;-81
2021/04/05 04:37:03;;;;;;;5.87;3.60;;;3.90;99.40;;;;;;5093362;28;20905;-81
2021/04/05 04:39:30;;;;;;;7.17;4.63;;;3.90;99.10;;;;;;5093427;28;20597;-80
2021/04/05 04:41:56;;;;;;;5.50;3.80;;;3.80;99.60;;;;;;5093469;28;20502;-81
2021/04/05 04:44:22;;;;;;;4.73;3.60;;;3.80;99.30;;;;;;5093662;28;20444;-80
2021/04/05 04:46:50;;;;;;;4.90;3.67;;;3.80;99.60;;;;;;5093582;28;20451;-80
2021/04/05 04:49:16;;;;;;;7.47;3.83;;;3.80;99.50;;;;;;5093568;28;20471;-81
2021/04/05 04:51:42;;;;;;;4.43;3.70;;;3.80;99.40;;;;;;5093561;28;20824;-80
2021/04/05 04:54:10;;;;;;;5.70;3.67;;;3.90;99.30;;;;;;5093660;28;20452;-80
2021/04/05 04:56:37;;;;;;;5.07;3.90;;;3.90;99.40;;;;;;5093303;28;21010;-80
2021/04/05 04:59:05;;;;;;;7.33;4.10;;;3.80;99.30;;;;;;5093144;28;20452;-80
2021/04/05 05:01:33;;;;;;;5.47;3.80;;;3.90;99.40;;;;;;5093467;28;20532;-81
2021/04/05 05:04:04;;;;;;;6.83;4.47;;;4.00;98.80;;;;;;5092998;28;20509;-80
2021/04/05 05:06:33;;;;;;;7.70;4.07;;;4.00;98.50;;;;;;5093414;28;20428;-81
2021/04/05 05:08:59;;;;;;;5.60;3.53;;;4.00;98.50;;;;;;5092939;28;21044;-80
2021/04/05 05:11:27;;;;;;;4.67;3.97;;;4.00;98.40;;;;;;5096573;28;20457;-80
2021/04/05 05:13:55;;;;;;;6.70;4.43;;;4.10;98.30;;;;;;5097258;28;20429;-80
2021/04/05 05:16:22;;;;;;;5.70;3.90;;;4.10;98.00;;;;;;5097047;28;21009;-80
2021/04/05 05:18:51;;;;;;;5.53;3.60;;;4.20;97.90;;;;;;5097000;28;20467;-80
2021/04/05 05:21:23;;;;;;;7.73;4.50;;;4.20;97.80;;;;;;5097050;28;20436;-80
2021/04/05 05:23:53;;;;;;;5.10;3.70;;;4.20;97.50;;;;;;5097347;28;20428;-80
2021/04/05 05:26:20;;;;;;;5.93;3.73;;;4.30;97.50;;;;;;5097552;28;20451;-80
2021/04/05 05:28:48;;;;;;;7.63;4.17;;;4.30;97.50;;;;;;5097244;28;20420;-80
2021/04/05 05:31:15;;;;;;;5.97;3.90;;;4.40;97.50;;;;;;5097236;28;20454;-80
2021/04/05 05:33:41;;;;;;;8.40;4.67;;;4.40;97.30;;;;;;5097141;28;20451;-80
2021/04/05 05:36:07;;;;;;;5.90;4.00;;;4.40;97.30;;;;;;5097010;28;20903;-80
2021/04/05 05:38:36;;;;;;;8.97;4.03;;;4.50;97.30;;;;;;5096947;28;20448;-80
2021/04/05 05:41:10;;;;;;;7.60;4.20;;;4.60;97.20;;;;;;5096670;28;20448;-80
2021/04/05 05:43:45;;;;;;;6.10;3.53;;;4.70;96.70;;;;;;5096977;28;20436;-80
2021/04/05 05:46:19;;;;;;;7.00;3.90;;;4.70;96.90;;;;;;5096943;28;20768;-80
2021/04/05 05:48:57;;;;;;;5.73;3.37;;;4.80;96.80;;;;;;5096375;28;20519;-80
2021/04/05 05:51:34;;;;;;;5.17;3.87;;;4.90;96.70;;;;;;5096801;28;20432;-80
2021/04/05 05:54:07;;;;;;;5.60;3.87;;;5.10;95.90;;;;;;5096744;28;20547;-80
2021/04/05 05:56:39;;;;;;;5.43;3.97;;;5.20;95.20;;;;;;5096388;28;20460;-80
2021/04/05 05:59:15;;;;;;;4.73;4.17;;;5.30;94.90;;;;;;5096633;28;20471;-80
2021/04/05 06:01:51;;;;;;;4.60;3.07;;;5.40;93.80;;;;;;5096480;28;20452;-81
2021/04/05 06:04:34;;;;;;;6.60;3.83;;;5.50;93.40;;;;;;5096434;28;20543;-80
2021/04/05 06:07:05;;;;;;;8.00;3.37;;;5.80;92.70;;;;;;5096111;28;20965;-80
2021/04/05 06:09:53;;;;;;;4.70;3.60;;;5.90;92.00;;;;;;5096056;28;20474;-80
2021/04/05 06:12:27;;;;;;;7.87;3.77;;;6.00;91.30;;;;;;5096379;28;20819;-80
2021/04/05 06:15:05;;;;;;;6.77;3.10;;;6.10;90.70;;;;;;5096397;28;20440;-80
2021/04/05 06:17:48;;;;;;;8.00;3.97;;;6.20;90.70;;;;;;5095990;28;20900;-80
2021/04/05 06:20:19;;;;;;;5.50;3.30;;;6.20;90.70;;;;;;5096254;28;20468;-80
2021/04/05 06:22:59;;;;;;;7.10;3.47;;;6.20;90.30;;;;;;5095289;28;20440;-80
2021/04/05 06:25:42;;;;;;;8.60;3.47;;;6.20;90.40;;;;;;5096263;28;20417;-80
2021/04/05 06:28:16;;;;;;;5.07;3.40;;;6.30;90.20;;;;;;5095850;28;20428;-80
2021/04/05 06:30:54;;;;;;;5.57;3.23;;;6.40;90.10;;;;;;5095981;28;20868;-81
2021/04/05 06:33:28;;;;;;;4.80;3.17;;;6.50;90.10;;;;;;5095961;28;20465;-80
2021/04/05 06:36:08;;;;;;;7.03;3.30;;;6.50;89.40;;;;;;5095899;28;20470;-79
2021/04/05 06:38:38;;;;;;;3.90;2.83;;;6.60;89.10;;;;;;5095579;28;20785;-80
2021/04/05 06:41:29;;;;;;;4.93;3.27;;;6.80;88.90;;;;;;5095844;28;20450;-80
2021/04/05 06:44:12;;;;;;;4.53;3.33;;;6.80;88.00;;;;;;5095838;28;20490;-80
2021/04/05 06:47:12;;;;;;;5.00;3.07;;;6.90;87.80;;;;;;5095609;28;20433;-80
2021/04/05 06:50:02;;;;;;;7.43;3.23;;;6.90;87.00;;;;;;5095431;28;20449;-80
2021/04/05 06:52:51;;;;;;;4.87;3.07;;;7.10;87.60;;;;;;5095684;28;20474;-80
2021/04/05 06:55:28;;;;;;;3.60;2.93;;;7.20;86.40;;;;;;5095467;28;20490;-80
2021/04/05 06:58:22;;;;;;;10.03;3.80;;;7.30;86.20;;;;;;5095186;28;20493;-80
2021/04/05 07:01:00;;;;;;;6.90;3.93;;;7.40;85.50;;;;;;5072957;28;20460;-80
2021/04/05 07:03:54;;;;;;;4.90;3.80;;;7.50;84.00;;;;;;5095181;28;20828;-81
2021/04/05 07:06:35;;;;;;;4.20;3.30;;;7.70;84.10;;;;;;5095339;28;20428;-80
2021/04/05 07:09:04;;;;;;;6.43;2.90;;;7.70;83.50;;;;;;5095765;28;20529;-81
2021/04/05 07:11:39;;;;;;;4.60;3.00;;;7.90;82.80;;;;;;5095256;28;20444;-81
2021/04/05 07:14:25;;;;;;;4.53;3.03;;;8.10;81.70;;;;;;5095205;28;20439;-80
2021/04/05 07:16:57;;;;;;;4.73;3.43;;;8.30;80.70;;;;;;5094785;28;21044;-81
2021/04/05 07:19:54;;;;;;;2.90;2.40;;;8.50;79.50;;;;;;5094875;28;20460;-80
2021/04/05 07:22:30;;;;;;;6.70;3.50;;;8.70;78.30;;;;;;5095048;28;20436;-81
2021/04/05 07:25:03;;;;;;;4.00;2.90;;;9.20;79.00;;;;;;5094982;28;20436;-81
2021/04/05 07:27:37;;;;;;;7.93;3.70;;;9.70;75.80;;;;;;5094737;28;20432;-80
2021/04/05 07:30:13;;;;;;;4.60;3.77;;;10.30;73.00;;;;;;5094838;28;20463;-81
2021/04/05 07:32:47;;;;;;;4.80;3.27;;;10.70;70.00;;;;;;5094920;28;20462;-81
2021/04/05 07:35:19;;;;;;;9.17;3.50;;;11.10;69.30;;;;;;5093961;28;20879;-81
2021/04/05 07:37:57;;;;;;;4.90;3.10;;;11.30;66.60;;;;;;5094867;28;20432;-81
2021/04/05 07:40:40;;;;;;;5.60;3.10;;;11.40;67.30;;;;;;5094720;28;20872;-81
2021/04/05 07:43:16;;;;;;;6.77;3.57;;;12.00;67.40;;;;;;5094754;28;20440;-81
2021/04/05 07:45:55;;;;;;;7.47;3.63;;;12.80;63.90;;;;;;5094715;28;20452;-80
2021/04/05 07:48:24;;;;;;;5.20;3.00;;;13.70;62.70;;;;;;5094275;28;20468;-81
2021/04/05 07:50:55;;;;;;;6.10;3.60;;;14.30;60.90;;;;;;5094646;28;20517;-81
2021/04/05 07:53:26;;;;;;;5.10;3.60;;;14.90;58.40;;;;;;5095583;28;20428;-82
2021/04/05 07:55:58;;;;;;;6.60;4.17;;;15.10;57.60;;;;;;5094727;28;20460;-81
2021/04/05 07:58:31;;;;;;;4.13;3.53;;;15.10;56.30;;;;;;5094630;28;20419;-81
2021/04/05 08:01:06;;;;;;;6.87;4.10;;;14.90;57.10;;;;;;5094445;28;20440;-81
2021/04/05 08:03:51;;;;;;;4.80;3.77;;;14.80;56.50;;;;;;5094490;28;20558;-81
2021/04/05 08:06:20;;;;;;;6.60;4.27;;;14.80;56.40;;;;;;5093845;28;21012;-81
2021/04/05 08:08:55;;;;;;;4.20;3.10;;;14.60;56.90;;;;;;5094425;28;20444;-81
2021/04/05 08:11:45;;;;;;;9.57;3.70;;;14.60;56.90;;;;;;5094472;28;20427;-81
2021/04/05 08:14:22;;;;;;;7.33;3.40;;;14.70;56.70;;;;;;5094526;28;20416;-81
2021/04/05 08:17:00;;;;;;;9.50;3.10;;;14.90;56.00;;;;;;5094294;28;20480;-82
2021/04/05 08:19:41;;;;;;;6.40;3.20;;;15.30;55.40;;;;;;5094107;28;20474;-81
2021/04/05 08:22:20;;;;;;;4.30;3.00;;;15.30;53.90;;;;;;5094041;28;20523;-81
2021/04/05 08:24:59;;;;;;;7.93;3.07;;;15.30;54.60;;;;;;5094143;28;20435;-82
2021/04/05 08:27:30;;;;;;;4.50;3.53;;;15.30;54.40;;;;;;5094043;28;20425;-82
2021/04/05 08:30:03;;;;;;;5.83;2.83;;;15.10;54.50;;;;;;5093961;28;20822;-81
2021/04/05 08:32:38;;;;;;;6.00;3.13;;;15.00;53.90;;;;;;5094254;28;20491;-82
2021/04/05 08:35:18;;;;;;;5.27;3.83;;;14.80;53.90;;;;;;5094090;28;20435;-82
2021/04/05 08:37:56;;;;;;;4.00;3.00;;;14.50;52.90;;;;;;5094051;28;20511;-81
2021/04/05 08:40:25;;;;;;;5.77;2.90;;;14.20;54.50;;;;;;5093772;28;20997;-82
2021/04/05 08:43:00;;;;;;;5.30;3.03;;;14.10;55.30;;;;;;5094185;28;20448;-82
2021/04/05 08:45:37;;;;;;;7.33;3.10;;;14.00;54.80;;;;;;5093835;28;20911;-81
2021/04/05 08:48:07;;;;;;;3.93;2.20;;;14.00;54.70;;;;;;5093379;28;20459;-81
2021/04/05 08:50:39;;;;;;;6.33;2.50;;;13.90;54.00;;;;;;5093616;28;20464;-81
2021/04/05 08:53:08;;;;;;;4.27;2.67;;;13.60;54.60;;;;;;5094216;28;20424;-81
2021/04/05 08:55:34;;;;;;;4.07;2.40;;;13.40;54.80;;;;;;5093475;28;20484;-81
2021/04/05 08:58:06;;;;;;;3.93;2.30;;;13.30;55.40;;;;;;5093572;28;20966;-81
2021/04/05 09:00:37;;;;;;;3.30;2.47;;;13.10;56.30;;;;;;5093595;28;20475;-81
2021/04/05 09:03:09;;;;;;;4.30;2.60;;;13.00;55.50;;;;;;5093793;28;20428;-81
2021/04/05 09:05:40;;;;;;;4.10;2.37;;;12.70;56.00;;;;;;5093844;28;20431;-82
2021/04/05 09:08:08;;;;;;;6.77;2.40;;;12.70;56.60;;;;;;5093355;28;20770;-81
2021/04/05 09:10:44;;;;;;;8.20;2.43;;;12.70;56.30;;;;;;5093295;28;20975;-82
2021/04/05 09:13:13;;;;;;;6.30;2.07;;;12.70;56.20;;;;;;5093445;28;20427;-80
2021/04/05 09:16:19;;;;;;;6.00;2.50;;;12.40;55.70;;;;;;5094080;28;20468;-81
2021/04/05 09:19:27;;;;;;;4.80;2.60;;;12.20;55.10;;;;;;5093031;28;20436;-82
2021/04/05 09:22:17;;;;;;;6.77;2.17;;;12.10;55.00;;;;;;5093774;28;20435;-80
2021/04/05 09:25:03;;;;;;;4.90;3.40;;;12.00;56.30;;;;;;5093319;28;21000;-82
2021/04/05 09:27:45;;;;;;;3.73;2.13;;;12.10;55.90;;;;;;5093268;28;20433;-81
2021/04/05 09:30:36;;;;;;;5.13;2.40;;;12.20;56.30;;;;;;5093129;28;20444;-82
2021/04/05 09:33:25;;;;;;;5.50;2.20;;;12.10;55.80;;;;;;5093361;28;20506;-82
2021/04/05 09:36:07;;;;;;;2.17;1.87;;;12.20;55.80;;;;;;5093055;28;20517;-82
2021/04/05 09:38:55;;;;;;;5.33;2.20;;;12.20;55.30;;;;;;5092815;28;20413;-83
2021/04/05 09:41:46;;;;;;;3.60;1.70;;;12.10;55.40;;;;;;5093120;28;20438;-82
2021/04/05 09:44:43;;;;;;;3.90;2.40;;;12.10;56.60;;;;;;5092771;28;20437;-82
2021/04/05 09:47:41;;;;;;;7.00;3.37;;;12.10;55.70;;;;;;5092802;28;20498;-82
2021/04/05 09:50:24;;;;;;;4.60;2.20;;;12.00;56.40;;;;;;5075069;28;20464;-83
2021/04/05 09:53:14;;;;;;;8.53;2.90;;;11.90;56.20;;;;;;5092994;28;20436;-82
2021/04/05 09:55:45;;;;;;;5.87;2.43;;;12.00;56.20;;;;;;5092588;28;20463;-82
2021/04/05 09:58:18;;;;;;;2.90;2.23;;;11.90;55.70;;;;;;5095440;28;20831;-82
2021/04/05 10:00:50;;;;;;;3.80;2.43;;;12.00;55.60;;;;;;5096611;28;20472;-82
2021/04/05 10:03:18;;;;;;;8.90;2.43;;;12.10;55.70;;;;;;5096716;28;20477;-82
2021/04/05 10:05:47;;;;;;;5.93;2.40;;;12.10;55.10;;;;;;5096597;28;20432;-82
2021/04/05 10:08:17;;;;;;;3.07;2.40;;;12.00;54.70;;;;;;5096489;28;20412;-82
2021/04/05 10:10:45;;;;;;;5.07;2.47;;;12.10;54.80;;;;;;5096365;28;20483;-82
2021/04/05 10:13:13;;;;;;;3.40;2.10;;;12.00;53.80;;;;;;5096179;28;20436;-82
2021/04/05 10:15:42;;;;;;;3.77;2.37;;;11.90;53.60;;;;;;5096382;28;20412;-82
2021/04/05 10:18:12;;;;;;;4.73;2.40;;;11.80;54.20;;;;;;5096329;28;20424;-82
2021/04/05 10:20:40;;;;;;;5.73;2.10;;;11.90;54.40;;;;;;5096287;28;20513;-82
2021/04/05 10:23:08;;;;;;;3.27;1.87;;;11.80;54.60;;;;;;5096360;28;20451;-82
2021/04/05 10:25:36;;;;;;;3.80;1.90;;;11.80;53.40;;;;;;5096337;28;20444;-82
2021/04/05 10:28:05;;;;;;;3.27;2.20;;;11.80;53.40;;;;;;5096231;28;20439;-82
2021/04/05 10:30:35;;;;;;;3.90;2.07;;;11.70;51.80;;;;;;5096134;28;20468;-82
2021/04/05 10:33:04;;;;;;;3.40;2.27;;;11.70;51.70;;;;;;5096124;28;20438;-82
2021/04/05 10:35:34;;;;;;;4.83;2.13;;;11.70;51.30;;;;;;5095659;28;20486;-82
2021/04/05 10:38:03;;;;;;;2.83;2.03;;;11.80;50.90;;;;;;5096403;28;20802;-82
2021/04/05 10:40:29;;;;;;;3.63;2.23;;;11.90;50.60;;;;;;5095826;28;20472;-82
2021/04/05 10:43:06;;;;;;;8.30;1.93;;;12.00;50.50;;;;;;5095983;28;20532;-82
2021/04/05 10:45:37;;;;;;;3.93;2.40;;;12.00;49.90;;;;;;5095879;28;20451;-82
2021/04/05 10:48:07;;;;;;;4.57;2.50;;;12.10;50.20;;;;;;5095514;28;20827;-82
2021/04/05 10:50:37;;;;;;;2.70;1.83;;;12.20;49.30;;;;;;5095659;28;20549;-82
2021/04/05 10:53:06;;;;;;;4.60;2.80;;;12.20;49.50;;;;;;5095796;28;20850;-82
2021/04/05 10:55:38;;;;;;;4.57;2.43;;;12.30;49.80;;;;;;5095593;28;20432;-81
2021/04/05 10:58:09;;;;;;;3.47;2.27;;;12.30;49.30;;;;;;5095386;28;20421;-82
2021/04/05 11:00:38;;;;;;;3.20;2.60;;;12.40;48.60;;;;;;5095303;28;20505;-82
2021/04/05 11:03:16;;;;;;;6.90;2.37;;;12.40;48.60;;;;;;5095929;28;20454;-82
2021/04/05 11:05:44;;;;;;;4.57;2.17;;;12.30;47.60;;;;;;5095529;28;20477;-82
2021/04/05 11:08:17;;;;;;;4.23;2.43;;;12.50;47.50;;;;;;5095711;28;20840;-82
2021/04/05 11:10:45;;;;;;;3.37;2.60;;;12.70;47.90;;;;;;5095452;28;20517;-82
2021/04/05 11:13:16;;;;;;;3.80;2.27;;;13.00;45.90;;;;;;5095707;28;20516;-80
2021/04/05 11:15:44;;;;;;;5.67;2.53;;;13.20;46.20;;;;;;5095252;28;20409;-82
2021/04/05 11:18:14;;;;;;;3.43;2.10;;;13.40;46.00;;;;;;5094945;28;20951;-82
2021/04/05 11:20:42;;;;;;;5.27;2.37;;;13.70;46.20;;;;;;5094902;28;20455;-82
2021/04/05 11:23:10;;;;;;;4.63;2.33;;;13.60;46.30;;;;;;5095161;28;20432;-82
2021/04/05 11:25:40;;;;;;;5.63;2.50;;;13.90;46.70;;;;;;5095092;28;20435;-82
2021/04/05 11:28:10;;;;;;;5.33;2.50;;;13.80;46.50;;;;;;5095038;28;20485;-82
2021/04/05 11:30:39;;;;;;;5.17;2.07;;;13.80;46.50;;;;;;5094927;28;20472;-82
2021/04/05 11:33:08;;;;;;;5.13;2.73;;;13.60;46.90;;;;;;5094895;28;20428;-82
2021/04/05 11:35:37;;;;;;;4.03;2.17;;;13.30;46.20;;;;;;5094793;28;20533;-82
2021/04/05 11:38:06;;;;;;;4.53;2.20;;;13.20;46.90;;;;;;5094859;28;20436;-80
2021/04/05 11:40:33;;;;;;;5.87;2.63;;;13.30;47.30;;;;;;5094733;28;20521;-80
2021/04/05 11:43:02;;;;;;;4.80;2.50;;;13.30;47.20;;;;;;5094408;28;20900;-81
2021/04/05 11:45:32;;;;;;;5.27;2.80;;;13.30;48.00;;;;;;5094710;28;20532;-80
2021/04/05 11:48:03;;;;;;;7.10;3.57;;;13.30;48.10;;;;;;5094238;28;21071;-80
2021/04/05 11:50:29;;;;;;;3.77;2.80;;;13.60;48.40;;;;;;5094311;28;20509;-80
2021/04/05 11:53:02;;;;;;;5.30;3.30;;;13.70;47.20;;;;;;5094590;28;20474;-80
2021/04/05 11:55:32;;;;;;;3.43;2.63;;;13.90;47.80;;;;;;5094433;28;20489;-80
2021/04/05 11:58:02;;;;;;;10.37;4.07;;;13.80;46.90;;;;;;5094738;28;20858;-80
2021/04/05 12:00:37;;;;;;;7.90;3.50;;;13.70;47.40;;;;;;5094088;28;21047;-80
2021/04/05 12:03:17;;;;;;;4.13;3.00;;;13.80;48.10;;;;;;5094712;28;20443;-80
2021/04/05 12:05:48;;;;;;;4.13;2.93;;;13.90;48.30;;;;;;5094275;28;20481;-80
2021/04/05 12:08:19;;;;;;;6.43;3.83;;;13.80;48.20;;;;;;5094319;28;20420;-80
2021/04/05 12:10:48;;;;;;;8.07;3.90;;;13.80;48.90;;;;;;5093904;28;20966;-80
2021/04/05 12:13:18;;;;;;;7.57;3.80;;;13.70;48.30;;;;;;5094236;28;20412;-80
2021/04/05 12:15:47;;;;;;;4.07;3.47;;;13.80;48.80;;;;;;5093827;28;20919;-80
2021/04/05 12:18:21;;;;;;;5.80;3.63;;;13.80;48.80;;;;;;5094055;28;20429;-81
2021/04/05 12:20:48;;;;;;;7.07;4.43;;;13.80;50.00;;;;;;5093326;28;20448;-80
2021/04/05 12:23:16;;;;;;;6.60;3.23;;;13.80;49.90;;;;;;5094047;28;20451;-80
2021/04/05 12:25:45;;;;;;;8.07;3.50;;;13.80;50.10;;;;;;5093734;28;20907;-81
2021/04/05 12:28:12;;;;;;;5.23;4.67;;;13.70;50.20;;;;;;5094062;28;20432;-80
2021/04/05 12:30:40;;;;;;;10.57;4.63;;;13.80;50.60;;;;;;5094520;28;20533;-81
2021/04/05 12:33:11;;;;;;;14.17;6.30;;;13.60;50.00;;;;;;5093820;28;20503;-80
2021/04/05 12:35:39;;;;;;;6.10;3.90;;;13.60;50.30;;;;;;5093797;28;20424;-80
2021/04/05 12:38:07;;;;;;;10.20;4.90;;;13.40;50.50;;;;;;5094563;28;20447;-80
2021/04/05 12:40:35;;;;;;;8.37;4.90;;;13.40;50.70;;;;;;5093810;28;20470;-80
2021/04/05 12:43:05;;;;;;;12.07;5.87;;;13.10;51.10;;;;;;5093455;28;20432;-80
2021/04/05 12:45:32;;;;;;;18.43;5.40;;;13.00;51.40;;;;;;5093513;28;20776;-80
2021/04/05 12:47:59;;;;;;;9.80;5.47;;;12.80;52.00;;;;;;5093345;28;20471;-80
2021/04/05 12:50:29;;;;;;;11.17;5.40;;;12.60;52.70;;;;;;5093517;28;20468;-80
2021/04/05 12:53:00;;;;;;;11.83;5.30;;;12.50;53.20;;;;;;5093530;28;20448;-81
2021/04/05 12:55:29;;;;;;;6.60;4.70;;;12.30;54.30;;;;;;5094023;28;20452;-80
2021/04/05 12:57:57;;;;;;;10.00;4.63;;;12.20;53.40;;;;;;5093578;28;20824;-81
2021/04/05 13:00:25;;;;;;;9.53;4.87;;;12.10;54.90;;;;;;5093476;28;20525;-81
2021/04/05 13:02:58;;;;;;;11.10;5.40;;;12.00;55.20;;;;;;5093530;28;20423;-81
2021/04/05 13:05:34;;;;;;;7.67;5.10;;;11.90;55.50;;;;;;5093278;28;20413;-81
2021/04/05 13:08:05;;;;;;;11.40;6.37;;;11.80;56.40;;;;;;5093241;28;20423;-80
2021/04/05 13:10:39;;;;;;;10.50;5.90;;;11.70;57.10;;;;;;5093448;28;20468;-81
2021/04/05 13:13:13;;;;;;;10.73;5.70;;;11.60;57.70;;;;;;5093230;28;20416;-80
2021/04/05 13:15:44;;;;;;;13.53;6.07;;;11.50;58.40;;;;;;5093389;28;20435;-80